createdAt,value
2023-02-15T00:00:00.353Z,56.70
2023-02-15T00:02:27.087Z,57.37
2023-02-15T00:04:54.330Z,59.92
2023-02-15T00:07:21.104Z,62.06
2023-02-15T00:09:48.339Z,64.18
2023-02-15T00:12:16.639Z,61.44
2023-02-15T00:14:43.665Z,56.77
2023-02-15T00:17:10.607Z,57.15
2023-02-15T00:19:37.515Z,59.27
2023-02-15T00:22:04.940Z,61.39
2023-02-15T00:24:32.352Z,63.64
2023-02-15T00:26:59.203Z,61.45
2023-02-15T00:29:25.915Z,56.60
2023-02-15T00:31:52.939Z,56.86
2023-02-15T00:34:23.560Z,59.29
2023-02-15T00:36:50.961Z,61.61
2023-02-15T00:39:18.366Z,63.48
2023-02-15T00:41:46.567Z,60.76
2023-02-15T00:44:15.588Z,56.06
2023-02-15T00:46:42.780Z,57.00
2023-02-15T00:49:10.802Z,59.38
2023-02-15T00:51:40.170Z,61.26
2023-02-15T00:54:07.343Z,63.41
2023-02-15T00:56:34.024Z,61.74
2023-02-15T00:59:00.662Z,56.91
2023-02-15T01:01:27.512Z,57.08
2023-02-15T01:03:54.307Z,59.35
2023-02-15T01:06:21.290Z,61.29
2023-02-15T01:08:48.434Z,63.35
2023-02-15T01:11:22.256Z,61.79
2023-02-15T01:13:56.095Z,57.01
2023-02-15T01:16:25.882Z,57.51
2023-02-15T01:18:52.685Z,59.76
2023-02-15T01:21:21.929Z,61.63
2023-02-15T01:23:48.762Z,63.77
2023-02-15T01:26:16.373Z,61.35
2023-02-15T01:28:43.266Z,56.55
2023-02-15T01:31:17.452Z,57.16
2023-02-15T01:33:44.311Z,59.65
2023-02-15T01:36:10.961Z,61.62
2023-02-15T01:38:37.993Z,63.77
2023-02-15T01:41:23.038Z,61.79
2023-02-15T01:43:56.090Z,56.74
2023-02-15T01:46:28.291Z,57.53
2023-02-15T01:49:18.193Z,59.98
2023-02-15T01:51:46.558Z,62.20
2023-02-15T01:54:24.860Z,63.76
2023-02-15T01:56:51.423Z,59.92
2023-02-15T01:59:22.473Z,56.06
2023-02-15T02:01:51.780Z,57.76
2023-02-15T02:04:29.347Z,59.99
2023-02-15T02:06:58.327Z,62.09
2023-02-15T02:09:25.099Z,63.90
2023-02-15T02:11:52.118Z,60.36
2023-02-15T02:14:19.486Z,56.16
2023-02-15T02:16:54.763Z,57.50
2023-02-15T02:19:51.815Z,60.01
2023-02-15T02:22:45.812Z,62.50
2023-02-15T02:25:25.646Z,63.01
2023-02-15T02:28:13.220Z,58.00
2023-02-15T02:31:06.831Z,56.95
2023-02-15T02:33:39.985Z,59.44
2023-02-15T02:36:27.194Z,61.34
2023-02-15T02:39:04.725Z,63.64
2023-02-15T02:41:51.217Z,61.03
2023-02-15T02:44:25.353Z,55.99
2023-02-15T02:47:13.064Z,57.06
2023-02-15T02:49:43.012Z,59.53
2023-02-15T02:52:43.613Z,61.29
2023-02-15T02:55:36.296Z,63.21
2023-02-15T02:58:15.627Z,60.90
2023-02-15T03:00:47.176Z,56.10
2023-02-15T03:03:39.191Z,57.19
2023-02-15T03:06:21.724Z,59.43
2023-02-15T03:08:52.232Z,61.48
2023-02-15T03:11:19.383Z,63.72
2023-02-15T03:13:48.076Z,61.75
2023-02-15T03:16:28.596Z,56.94
2023-02-15T03:19:12.171Z,57.36
2023-02-15T03:21:57.882Z,59.66
2023-02-15T03:24:29.728Z,61.89
2023-02-15T03:26:56.761Z,63.98
2023-02-15T03:29:26.944Z,61.45
2023-02-15T03:32:06.060Z,56.42
2023-02-15T03:34:36.828Z,57.08
2023-02-15T03:37:25.090Z,59.52
2023-02-15T03:40:25.345Z,61.42
2023-02-15T03:43:01.057Z,63.81
2023-02-15T03:45:31.582Z,61.29
2023-02-15T03:48:00.136Z,56.55
2023-02-15T03:50:51.071Z,57.07
2023-02-15T03:53:22.049Z,59.31
2023-02-15T03:55:50.639Z,61.55
2023-02-15T03:58:35.501Z,63.91
2023-02-15T04:01:35.202Z,61.68
2023-02-15T04:04:08.719Z,56.53
2023-02-15T04:06:35.426Z,57.56
2023-02-15T04:09:20.439Z,59.90
2023-02-15T04:11:47.067Z,61.99
2023-02-15T04:14:31.908Z,64.03
2023-02-15T04:16:58.562Z,61.03
2023-02-15T04:19:43.484Z,56.63
2023-02-15T04:22:28.757Z,57.26
2023-02-15T04:25:13.537Z,59.81
2023-02-15T04:27:45.998Z,61.95
2023-02-15T04:30:14.804Z,64.13
2023-02-15T04:32:41.697Z,61.26
2023-02-15T04:35:09.607Z,56.49
2023-02-15T04:37:36.256Z,56.94
2023-02-15T04:40:05.212Z,59.25
2023-02-15T04:42:31.948Z,61.28
2023-02-15T04:44:58.558Z,63.52
2023-02-15T04:47:25.654Z,61.69
2023-02-15T04:49:52.334Z,56.83
2023-02-15T04:52:19.044Z,56.95
2023-02-15T04:54:45.861Z,59.28
2023-02-15T04:57:13.452Z,61.31
2023-02-15T04:59:40.160Z,63.38
2023-02-15T05:02:07.072Z,61.56
2023-02-15T05:04:33.782Z,56.74
2023-02-15T05:07:00.441Z,56.82
2023-02-15T05:09:27.271Z,58.93
2023-02-15T05:11:53.909Z,60.88
2023-02-15T05:14:20.768Z,62.72
2023-02-15T05:16:47.717Z,63.88
2023-02-15T05:19:14.360Z,59.91
2023-02-15T05:21:40.920Z,55.82
2023-02-15T05:24:26.344Z,57.43
2023-02-15T05:27:11.430Z,60.06
2023-02-15T05:29:38.255Z,62.26
2023-02-15T05:32:05.654Z,64.04
2023-02-15T05:34:32.384Z,60.57
2023-02-15T05:37:01.999Z,56.08
2023-02-15T05:39:28.544Z,57.00
2023-02-15T05:41:55.204Z,59.57
2023-02-15T05:44:21.790Z,61.47
2023-02-15T05:46:48.429Z,63.53
2023-02-15T05:49:15.044Z,61.48
2023-02-15T05:51:41.672Z,56.77
2023-02-15T05:54:08.371Z,56.99
2023-02-15T05:56:35.061Z,59.39
2023-02-15T05:59:01.825Z,61.30
2023-02-15T06:01:28.690Z,63.53
2023-02-15T06:03:56.157Z,61.73
2023-02-15T06:06:22.913Z,57.08
2023-02-15T06:08:49.603Z,57.35
2023-02-15T06:11:16.239Z,59.82
2023-02-15T06:13:42.765Z,61.72
2023-02-15T06:16:09.476Z,64.25
2023-02-15T06:18:36.090Z,61.98
2023-02-15T06:21:02.877Z,57.24
2023-02-15T06:23:29.462Z,56.95
2023-02-15T06:25:56.069Z,59.28
2023-02-15T06:28:22.681Z,61.31
2023-02-15T06:30:49.280Z,63.32
2023-02-15T06:33:15.971Z,62.01
2023-02-15T06:35:42.604Z,57.17
2023-02-15T06:38:09.173Z,57.10
2023-02-15T06:40:35.746Z,59.39
2023-02-15T06:43:02.324Z,61.52
2023-02-15T06:45:28.911Z,63.48
2023-02-15T06:47:55.557Z,61.36
2023-02-15T06:50:22.351Z,56.94
2023-02-15T06:52:48.934Z,57.45
2023-02-15T06:55:15.664Z,59.72
2023-02-15T06:57:42.245Z,61.67
2023-02-15T07:00:09.599Z,63.77
2023-02-15T07:02:36.154Z,61.46
2023-02-15T07:05:04.569Z,56.83
2023-02-15T07:07:31.204Z,57.19
2023-02-15T07:09:57.727Z,59.61
2023-02-15T07:12:42.835Z,61.76
2023-02-15T07:15:15.182Z,64.17
2023-02-15T07:17:42.295Z,61.11
2023-02-15T07:20:15.053Z,56.61
2023-02-15T07:22:41.570Z,57.46
2023-02-15T07:25:10.395Z,59.91
2023-02-15T07:27:37.236Z,62.11
2023-02-15T07:30:06.594Z,64.35
2023-02-15T07:32:33.742Z,61.46
2023-02-15T07:35:00.634Z,57.14
2023-02-15T07:37:27.965Z,57.72
2023-02-15T07:39:54.616Z,60.12
2023-02-15T07:42:22.278Z,62.32
2023-02-15T07:44:48.917Z,64.34
2023-02-15T07:47:15.595Z,61.15
2023-02-15T07:49:42.126Z,57.19
2023-02-15T07:52:08.783Z,58.02
2023-02-15T07:54:35.421Z,60.49
2023-02-15T07:57:02.419Z,63.13
2023-02-15T07:59:33.332Z,63.18
2023-02-15T08:01:59.915Z,58.85
2023-02-15T08:04:26.561Z,56.98
2023-02-15T08:06:54.808Z,59.69
2023-02-15T08:09:22.016Z,62.79
2023-02-15T08:11:48.908Z,63.67
2023-02-15T08:14:18.932Z,59.57
2023-02-15T08:16:49.315Z,56.74
2023-02-15T08:19:28.248Z,59.07
2023-02-15T08:21:57.983Z,61.21
2023-02-15T08:24:28.579Z,63.67
2023-02-15T08:26:55.829Z,61.41
2023-02-15T08:29:25.662Z,57.10
2023-02-15T08:32:08.156Z,57.49
2023-02-15T08:34:38.244Z,59.78
2023-02-15T08:37:06.347Z,61.54
2023-02-15T08:39:33.040Z,63.52
2023-02-15T08:41:59.646Z,60.86
2023-02-15T08:44:26.518Z,56.11
2023-02-15T08:46:53.228Z,56.18
2023-02-15T08:49:22.329Z,58.75
2023-02-15T08:51:49.982Z,60.14
2023-02-15T08:54:21.039Z,61.73
2023-02-15T08:56:48.166Z,62.78
2023-02-15T08:59:20.736Z,58.81
2023-02-15T09:01:48.543Z,57.21
2023-02-15T09:04:16.130Z,58.75
2023-02-15T09:06:46.992Z,59.92
2023-02-15T09:09:15.559Z,61.19
2023-02-15T09:11:44.746Z,61.75
2023-02-15T09:14:15.376Z,62.24
2023-02-15T09:16:48.948Z,61.32
2023-02-15T09:19:17.831Z,56.39
2023-02-15T09:21:44.403Z,55.91
2023-02-15T09:24:14.374Z,57.20
2023-02-15T09:26:44.006Z,57.83
2023-02-15T09:29:12.259Z,58.11
2023-02-15T09:31:45.937Z,58.14
2023-02-15T09:34:16.452Z,57.84
2023-02-15T09:36:43.605Z,57.78
2023-02-15T09:39:15.424Z,57.64
2023-02-15T09:42:19.029Z,57.45
2023-02-15T09:45:07.274Z,56.76
2023-02-15T09:48:02.158Z,56.51
2023-02-15T09:51:00.225Z,55.83
2023-02-15T09:54:01.334Z,55.69
2023-02-15T09:56:39.224Z,55.94
2023-02-15T09:59:05.730Z,55.95
2023-02-15T10:02:28.996Z,55.28
2023-02-15T10:05:02.499Z,54.61
2023-02-15T10:08:12.892Z,53.82
2023-02-15T10:11:26.216Z,53.36
2023-02-15T10:14:18.514Z,52.90
2023-02-15T10:16:52.209Z,51.76
2023-02-15T10:19:43.683Z,51.24
2023-02-15T10:22:35.506Z,50.78
2023-02-15T10:25:32.744Z,49.99
2023-02-15T10:28:09.900Z,50.12
2023-02-15T10:30:52.153Z,49.90
2023-02-15T10:33:40.780Z,49.20
2023-02-15T10:36:17.488Z,49.11
2023-02-15T10:38:58.779Z,48.98
2023-02-15T10:42:10.040Z,48.85
2023-02-15T10:44:59.544Z,48.69
2023-02-15T10:48:12.289Z,48.79
2023-02-15T10:51:04.584Z,48.62
2023-02-15T10:53:52.481Z,48.43
2023-02-15T10:56:39.078Z,48.54
2023-02-15T10:59:28.629Z,48.21
2023-02-15T11:02:18.730Z,48.27
2023-02-15T11:05:25.962Z,47.78
2023-02-15T11:07:57.253Z,47.08
2023-02-15T11:10:34.698Z,46.64
2023-02-15T11:13:10.302Z,46.32
2023-02-15T11:15:45.265Z,46.38
2023-02-15T11:18:39.939Z,46.01
2023-02-15T11:21:27.205Z,46.10
2023-02-15T11:23:53.903Z,45.98
2023-02-15T11:26:35.559Z,45.94
2023-02-15T11:29:14.818Z,46.18
2023-02-15T11:31:56.065Z,45.59
2023-02-15T11:35:00.975Z,45.30
2023-02-15T11:37:49.392Z,45.35
2023-02-15T11:40:29.917Z,45.47
2023-02-15T11:43:01.385Z,44.93
2023-02-15T11:45:34.659Z,44.35
2023-02-15T11:48:02.512Z,44.81
2023-02-15T11:50:32.982Z,44.80
2023-02-15T11:53:07.834Z,44.65
2023-02-15T11:55:35.399Z,44.32
2023-02-15T11:58:26.436Z,44.34
2023-02-15T12:01:17.050Z,43.84
2023-02-15T12:03:50.220Z,43.52
2023-02-15T12:06:53.773Z,43.19
2023-02-15T12:09:35.793Z,42.78
2023-02-15T12:12:30.034Z,42.06
2023-02-15T12:15:05.491Z,41.71
2023-02-15T12:17:36.248Z,41.87
2023-02-15T12:20:22.459Z,42.11
2023-02-15T12:23:02.859Z,42.24
2023-02-15T12:25:35.976Z,43.13
2023-02-15T12:28:04.909Z,43.09
2023-02-15T12:30:35.800Z,43.02
2023-02-15T12:33:16.943Z,43.20
2023-02-15T12:35:44.519Z,43.22
2023-02-15T12:38:11.019Z,43.26
2023-02-15T12:40:38.265Z,43.37
2023-02-15T12:43:09.297Z,43.33
2023-02-15T12:45:37.857Z,43.76
2023-02-15T12:48:17.737Z,44.12
2023-02-15T12:50:54.710Z,44.46
2023-02-15T12:53:34.436Z,44.62
2023-02-15T12:56:06.794Z,44.87
2023-02-15T12:58:36.022Z,45.22
2023-02-15T13:01:28.992Z,45.63
2023-02-15T13:04:04.277Z,45.82
2023-02-15T13:06:37.261Z,45.63
2023-02-15T13:09:17.203Z,45.57
2023-02-15T13:11:45.073Z,45.80
2023-02-15T13:14:32.699Z,46.12
2023-02-15T13:17:02.949Z,46.41
2023-02-15T13:19:41.800Z,47.08
2023-02-15T13:22:27.331Z,47.28
2023-02-15T13:24:58.742Z,47.83
2023-02-15T13:27:37.921Z,47.90
2023-02-15T13:30:35.474Z,48.24
2023-02-15T13:33:10.643Z,49.44
2023-02-15T13:35:54.819Z,50.16
2023-02-15T13:39:08.038Z,50.57
2023-02-15T13:41:44.931Z,50.79
2023-02-15T13:45:03.997Z,51.32
2023-02-15T13:48:14.565Z,51.79
2023-02-15T13:51:17.420Z,51.75
2023-02-15T13:54:22.444Z,52.26
2023-02-15T13:57:16.851Z,52.71
2023-02-15T14:00:05.519Z,52.91
2023-02-15T14:02:44.516Z,53.08
2023-02-15T14:05:54.707Z,52.98
2023-02-15T14:08:39.664Z,52.76
2023-02-15T14:11:32.762Z,52.84
2023-02-15T14:14:24.331Z,53.30
2023-02-15T14:17:11.163Z,53.68
2023-02-15T14:19:50.319Z,54.20
2023-02-15T14:22:38.825Z,54.72
2023-02-15T14:25:26.637Z,54.80
2023-02-15T14:28:02.050Z,55.07
2023-02-15T14:30:37.070Z,55.63
2023-02-15T14:33:15.840Z,55.80
2023-02-15T14:35:43.521Z,55.87
2023-02-15T14:38:10.343Z,55.92
2023-02-15T14:41:01.461Z,56.23
2023-02-15T14:43:46.539Z,56.49
2023-02-15T14:46:45.414Z,57.07
2023-02-15T14:49:16.162Z,57.05
2023-02-15T14:51:49.757Z,57.51
2023-02-15T14:54:19.387Z,57.80
2023-02-15T14:56:47.657Z,57.89
2023-02-15T14:59:18.875Z,58.08
2023-02-15T15:02:14.367Z,58.65
2023-02-15T15:05:11.806Z,59.12
2023-02-15T15:07:53.362Z,59.69
2023-02-15T15:10:20.998Z,60.07
2023-02-15T15:12:55.976Z,60.78
2023-02-15T15:15:31.429Z,60.83
2023-02-15T15:18:06.173Z,61.17
2023-02-15T15:20:41.180Z,61.42
2023-02-15T15:23:16.938Z,61.57
2023-02-15T15:26:31.067Z,61.67
2023-02-15T15:29:00.521Z,61.77
2023-02-15T15:31:40.160Z,62.19
2023-02-15T15:34:38.418Z,63.29
2023-02-15T15:37:26.882Z,58.25
2023-02-15T15:40:05.378Z,56.09
2023-02-15T15:42:41.948Z,57.22
2023-02-15T15:45:33.597Z,58.39
2023-02-15T15:48:33.880Z,59.39
2023-02-15T15:51:11.715Z,59.89
2023-02-15T15:53:50.508Z,60.39
2023-02-15T15:56:35.582Z,60.76
2023-02-15T15:59:08.796Z,61.12
2023-02-15T16:01:42.829Z,61.55
2023-02-15T16:04:23.053Z,61.77
2023-02-15T16:06:49.824Z,62.03
2023-02-15T16:09:18.377Z,63.54
2023-02-15T16:11:52.026Z,61.47
2023-02-15T16:14:29.191Z,56.51
2023-02-15T16:17:02.742Z,56.02
2023-02-15T16:19:40.957Z,57.39
2023-02-15T16:22:24.852Z,58.63
2023-02-15T16:25:12.683Z,59.61
2023-02-15T16:27:44.388Z,60.52
2023-02-15T16:30:44.762Z,61.34
2023-02-15T16:33:15.668Z,62.14
2023-02-15T16:36:03.288Z,63.66
2023-02-15T16:38:42.634Z,60.41
2023-02-15T16:41:18.266Z,55.58
2023-02-15T16:43:48.393Z,56.16
2023-02-15T16:46:30.215Z,57.87
2023-02-15T16:49:01.796Z,59.62
2023-02-15T16:51:33.640Z,60.94
2023-02-15T16:54:17.889Z,61.87
2023-02-15T16:56:46.711Z,63.26
2023-02-15T16:59:57.410Z,60.64
2023-02-15T17:02:53.505Z,55.44
2023-02-15T17:05:21.417Z,56.40
2023-02-15T17:08:05.357Z,58.06
2023-02-15T17:10:42.078Z,59.53
2023-02-15T17:13:17.256Z,60.87
2023-02-15T17:16:02.618Z,61.82
2023-02-15T17:18:46.102Z,63.38
2023-02-15T17:21:21.785Z,60.01
2023-02-15T17:23:51.344Z,55.62
2023-02-15T17:26:36.604Z,56.71
2023-02-15T17:29:12.611Z,58.81
2023-02-15T17:31:39.839Z,60.29
2023-02-15T17:34:06.705Z,61.47
2023-02-15T17:36:33.303Z,62.42
2023-02-15T17:39:20.630Z,63.80
2023-02-15T17:41:47.820Z,59.83
2023-02-15T17:44:18.777Z,56.01
2023-02-15T17:46:45.818Z,57.54
2023-02-15T17:49:25.037Z,59.48
2023-02-15T17:51:51.764Z,60.96
2023-02-15T17:54:36.882Z,62.12
2023-02-15T17:57:10.462Z,63.71
2023-02-15T17:59:55.586Z,60.29
2023-02-15T18:02:40.879Z,55.58
2023-02-15T18:05:39.796Z,56.96
2023-02-15T18:08:46.242Z,59.13
2023-02-15T18:11:32.010Z,60.92
2023-02-15T18:14:01.197Z,62.05
2023-02-15T18:16:38.180Z,63.84
2023-02-15T18:19:05.961Z,60.97
2023-02-15T18:21:33.461Z,56.57
2023-02-15T18:24:01.078Z,57.08
2023-02-15T18:26:28.259Z,59.18
2023-02-15T18:28:55.001Z,61.08
2023-02-15T18:31:25.297Z,62.40
2023-02-15T18:33:58.041Z,64.14
2023-02-15T18:36:37.322Z,61.10
2023-02-15T18:39:29.386Z,56.89
2023-02-15T18:41:56.114Z,57.51
2023-02-15T18:44:23.121Z,59.55
2023-02-15T18:46:49.697Z,60.90
2023-02-15T18:49:16.374Z,62.18
2023-02-15T18:51:43.475Z,64.17
2023-02-15T18:54:26.850Z,61.46
2023-02-15T18:56:57.144Z,56.68
2023-02-15T18:59:26.287Z,57.53
2023-02-15T19:01:53.642Z,59.76
2023-02-15T19:04:20.311Z,61.50
2023-02-15T19:06:48.688Z,63.54
2023-02-15T19:09:18.847Z,61.34
2023-02-15T19:11:54.360Z,57.39
2023-02-15T19:14:28.403Z,57.98
2023-02-15T19:16:56.029Z,60.20
2023-02-15T19:19:23.315Z,61.77
2023-02-15T19:21:53.051Z,63.17
2023-02-15T19:24:36.727Z,60.84
2023-02-15T19:27:03.663Z,56.26
2023-02-15T19:29:30.593Z,57.16
2023-02-15T19:31:57.474Z,59.14
2023-02-15T19:34:24.363Z,60.83
2023-02-15T19:36:54.017Z,62.27
2023-02-15T19:39:39.689Z,63.95
2023-02-15T19:42:12.893Z,60.11
2023-02-15T19:44:43.037Z,55.94
2023-02-15T19:47:13.219Z,57.37
2023-02-15T19:49:40.186Z,59.76
2023-02-15T19:52:25.062Z,61.54
2023-02-15T19:54:53.937Z,63.58
2023-02-15T19:57:21.118Z,61.07
2023-02-15T19:59:47.949Z,57.02
2023-02-15T20:02:17.528Z,57.40
2023-02-15T20:04:44.326Z,59.43
2023-02-15T20:07:26.087Z,61.12
2023-02-15T20:09:52.941Z,62.98
2023-02-15T20:12:24.233Z,62.11
2023-02-15T20:14:52.124Z,57.66
2023-02-15T20:17:18.812Z,57.56
2023-02-15T20:19:45.528Z,59.31
2023-02-15T20:22:26.628Z,60.91
2023-02-15T20:24:56.463Z,62.47
2023-02-15T20:27:23.592Z,63.28
2023-02-15T20:29:50.442Z,59.32
2023-02-15T20:32:17.234Z,56.22
2023-02-15T20:34:44.061Z,57.98
2023-02-15T20:37:28.381Z,60.04
2023-02-15T20:39:54.978Z,62.19
2023-02-15T20:42:21.945Z,63.87
2023-02-15T20:44:51.228Z,60.73
2023-02-15T20:47:18.478Z,56.47
2023-02-15T20:49:45.326Z,57.67
2023-02-15T20:52:19.824Z,59.99
2023-02-15T20:54:46.837Z,61.68
2023-02-15T20:57:14.101Z,63.65
2023-02-15T20:59:41.253Z,61.29
2023-02-15T21:02:20.401Z,57.02
2023-02-15T21:04:47.462Z,57.64
2023-02-15T21:07:20.215Z,60.28
2023-02-15T21:09:47.717Z,62.12
2023-02-15T21:12:18.737Z,63.60
2023-02-15T21:14:45.781Z,60.31
2023-02-15T21:17:14.946Z,55.94
2023-02-15T21:19:41.904Z,56.96
2023-02-15T21:22:13.144Z,59.05
2023-02-15T21:24:54.270Z,60.81
2023-02-15T21:27:21.692Z,62.75
2023-02-15T21:29:48.692Z,62.34
2023-02-15T21:32:15.622Z,57.94
2023-02-15T21:34:42.670Z,56.72
2023-02-15T21:37:27.993Z,59.03
2023-02-15T21:39:54.783Z,61.71
2023-02-15T21:42:39.892Z,63.71
2023-02-15T21:45:35.391Z,60.70
2023-02-15T21:48:02.357Z,56.26
2023-02-15T21:50:47.947Z,57.39
2023-02-15T21:53:27.030Z,59.79
2023-02-15T21:55:57.866Z,61.76
2023-02-15T21:58:28.235Z,63.82
2023-02-15T22:00:57.791Z,61.85
2023-02-15T22:03:36.896Z,57.77
2023-02-15T22:06:05.027Z,58.05
2023-02-15T22:08:32.161Z,60.04
2023-02-15T22:10:58.969Z,61.54
2023-02-15T22:13:31.738Z,63.30
2023-02-15T22:15:58.541Z,61.62
2023-02-15T22:18:34.168Z,57.74
2023-02-15T22:21:01.527Z,57.60
2023-02-15T22:23:28.518Z,60.21
2023-02-15T22:26:04.525Z,62.46
2023-02-15T22:28:35.188Z,63.92
2023-02-15T22:31:03.725Z,60.61
2023-02-15T22:33:33.748Z,56.38
2023-02-15T22:36:00.873Z,57.36
2023-02-15T22:38:28.121Z,59.55
2023-02-15T22:40:58.565Z,61.27
2023-02-15T22:43:34.681Z,62.47
2023-02-15T22:46:15.050Z,63.12
2023-02-15T22:48:43.690Z,58.85
2023-02-15T22:51:15.702Z,56.23
2023-02-15T22:53:42.841Z,58.12
2023-02-15T22:56:39.706Z,59.98
2023-02-15T22:59:20.300Z,61.75
2023-02-15T23:01:47.706Z,63.53
2023-02-15T23:04:18.145Z,60.59
2023-02-15T23:06:45.042Z,56.19
2023-02-15T23:09:12.123Z,56.90
2023-02-15T23:11:38.746Z,59.05
2023-02-15T23:14:05.301Z,60.82
2023-02-15T23:16:33.874Z,62.37
2023-02-15T23:19:00.768Z,63.64
2023-02-15T23:21:33.425Z,60.23
2023-02-15T23:24:20.241Z,56.08
2023-02-15T23:26:47.767Z,57.78
2023-02-15T23:29:19.738Z,59.90
2023-02-15T23:31:50.142Z,61.66
2023-02-15T23:34:24.608Z,63.59
2023-02-15T23:36:51.143Z,60.87
2023-02-15T23:39:43.052Z,56.47
2023-02-15T23:42:16.093Z,57.34
2023-02-15T23:44:44.379Z,59.50
2023-02-15T23:47:53.230Z,61.32
2023-02-15T23:50:21.388Z,63.44
2023-02-15T23:52:49.918Z,60.40
2023-02-15T23:55:17.437Z,56.42
2023-02-15T23:57:44.437Z,57.38
